sensor_id;sensor_type;location;lat;lon;timestamp;temperature;humidity
21744;DHT22;11034;48.556;9.342;2023-04-01T04:47:34;6.80;99.90
21744;DHT22;11034;48.556;9.342;2023-04-01T04:50:02;6.80;99.90
21744;DHT22;11034;48.556;9.342;2023-04-01T04:52:30;6.90;99.90
21744;DHT22;11034;48.556;9.342;2023-04-01T04:54:58;6.90;99.90
21744;DHT22;11034;48.556;9.342;2023-04-01T04:57:26;7.00;99.90
21744;DHT22;11034;48.556;9.342;2023-04-01T04:59:54;7.10;99.90
21744;DHT22;11034;48.556;9.342;2023-04-01T05:02:23;7.10;99.90
21744;DHT22;11034;48.556;9.342;2023-04-01T05:04:52;7.10;99.90
21744;DHT22;11034;48.556;9.342;2023-04-01T05:07:21;7.10;99.90
21744;DHT22;11034;48.556;9.342;2023-04-01T05:09:49;7.20;99.90
21744;DHT22;11034;48.556;9.342;2023-04-01T05:12:17;7.20;99.90
21744;DHT22;11034;48.556;9.342;2023-04-01T05:14:45;7.20;99.90
21744;DHT22;11034;48.556;9.342;2023-04-01T05:17:13;7.20;99.90
21744;DHT22;11034;48.556;9.342;2023-04-01T05:19:41;7.20;99.90
21744;DHT22;11034;48.556;9.342;2023-04-01T05:22:10;7.20;99.90
21744;DHT22;11034;48.556;9.342;2023-04-01T05:24:38;7.20;99.90
21744;DHT22;11034;48.556;9.342;2023-04-01T05:27:06;7.30;99.90
21744;DHT22;11034;48.556;9.342;2023-04-01T05:29:34;7.30;99.90
21744;DHT22;11034;48.556;9.342;2023-04-01T05:32:02;7.30;99.90
21744;DHT22;11034;48.556;9.342;2023-04-01T05:34:30;7.30;99.90
21744;DHT22;11034;48.556;9.342;2023-04-01T05:36:58;7.40;99.90
21744;DHT22;11034;48.556;9.342;2023-04-01T05:39:28;7.40;99.90
21744;DHT22;11034;48.556;9.342;2023-04-01T05:41:56;7.50;99.90
21744;DHT22;11034;48.556;9.342;2023-04-01T05:44:24;7.60;99.90
21744;DHT22;11034;48.556;9.342;2023-04-01T05:46:52;7.60;99.90
21744;DHT22;11034;48.556;9.342;2023-04-01T05:49:20;7.60;99.90
21744;DHT22;11034;48.556;9.342;2023-04-01T05:51:48;7.70;99.90
21744;DHT22;11034;48.556;9.342;2023-04-01T05:54:16;7.90;99.90
21744;DHT22;11034;48.556;9.342;2023-04-01T05:56:45;7.90;99.90
21744;DHT22;11034;48.556;9.342;2023-04-01T05:59:14;8.00;99.90
21744;DHT22;11034;48.556;9.342;2023-04-01T06:01:42;8.10;99.90
21744;DHT22;11034;48.556;9.342;2023-04-01T06:04:13;8.10;99.90
21744;DHT22;11034;48.556;9.342;2023-04-01T06:06:43;8.20;99.90
21744;DHT22;11034;48.556;9.342;2023-04-01T06:09:14;8.20;99.90
21744;DHT22;11034;48.556;9.342;2023-04-01T06:11:55;8.20;99.90
21744;DHT22;11034;48.556;9.342;2023-04-01T06:14:36;8.30;99.90
21744;DHT22;11034;48.556;9.342;2023-04-01T06:17:18;8.50;99.90
21744;DHT22;11034;48.556;9.342;2023-04-01T06:19:55;8.50;99.90
21744;DHT22;11034;48.556;9.342;2023-04-01T06:22:40;8.50;99.90
21744;DHT22;11034;48.556;9.342;2023-04-01T06:25:29;8.80;99.90
21744;DHT22;11034;48.556;9.342;2023-04-01T06:28:22;8.70;99.90
21744;DHT22;11034;48.556;9.342;2023-04-01T06:30:58;8.60;99.90
21744;DHT22;11034;48.556;9.342;2023-04-01T06:33:46;8.70;99.90
21744;DHT22;11034;48.556;9.342;2023-04-01T06:36:35;8.90;99.90
21744;DHT22;11034;48.556;9.342;2023-04-01T06:39:30;8.90;99.90
21744;DHT22;11034;48.556;9.342;2023-04-01T06:42:09;9.00;99.90
21744;DHT22;11034;48.556;9.342;2023-04-01T06:44:49;8.90;99.90
21744;DHT22;11034;48.556;9.342;2023-04-01T14:02:56;10.00;99.90
21744;DHT22;11034;48.556;9.342;2023-04-01T14:05:47;10.00;99.90
21744;DHT22;11034;48.556;9.342;2023-04-01T14:08:26;10.20;99.90
21744;DHT22;11034;48.556;9.342;2023-04-01T14:11:07;10.00;99.90
21744;DHT22;11034;48.556;9.342;2023-04-01T14:13:43;10.10;99.90
21744;DHT22;11034;48.556;9.342;2023-04-01T14:19:22;9.90;99.90
21744;DHT22;11034;48.556;9.342;2023-04-01T14:21:59;10.10;99.90
21744;DHT22;11034;48.556;9.342;2023-04-01T14:24:45;10.00;99.90
21744;DHT22;11034;48.556;9.342;2023-04-01T14:27:32;10.00;99.90
21744;DHT22;11034;48.556;9.342;2023-04-01T14:30:24;10.10;99.90
21744;DHT22;11034;48.556;9.342;2023-04-01T14:33:03;10.10;99.90
21744;DHT22;11034;48.556;9.342;2023-04-01T14:35:37;10.10;99.90
21744;DHT22;11034;48.556;9.342;2023-04-01T14:38:24;9.90;99.90
21744;DHT22;11034;48.556;9.342;2023-04-01T14:40:56;9.80;99.90
21744;DHT22;11034;48.556;9.342;2023-04-01T14:46:45;10.00;99.90
21744;DHT22;11034;48.556;9.342;2023-04-01T14:49:17;10.00;99.90
21744;DHT22;11034;48.556;9.342;2023-04-01T14:51:50;10.00;99.90
21744;DHT22;11034;48.556;9.342;2023-04-01T14:54:30;10.20;99.90
21744;DHT22;11034;48.556;9.342;2023-04-01T14:57:08;10.20;99.90
21744;DHT22;11034;48.556;9.342;2023-04-01T14:59:40;10.30;99.90
21744;DHT22;11034;48.556;9.342;2023-04-01T15:02:21;10.30;99.90
21744;DHT22;11034;48.556;9.342;2023-04-01T15:04:58;10.40;99.90
21744;DHT22;11034;48.556;9.342;2023-04-01T15:07:49;10.20;99.90
21744;DHT22;11034;48.556;9.342;2023-04-01T15:16:39;10.30;99.90
21744;DHT22;11034;48.556;9.342;2023-04-01T15:19:17;10.20;99.90
21744;DHT22;11034;48.556;9.342;2023-04-01T15:22:15;10.20;99.90
21744;DHT22;11034;48.556;9.342;2023-04-01T15:25:00;10.20;99.90
21744;DHT22;11034;48.556;9.342;2023-04-01T15:27:39;10.20;99.90
21744;DHT22;11034;48.556;9.342;2023-04-01T15:30:29;10.20;99.90
21744;DHT22;11034;48.556;9.342;2023-04-01T15:33:13;10.20;99.90
21744;DHT22;11034;48.556;9.342;2023-04-01T15:35:49;10.20;99.90
21744;DHT22;11034;48.556;9.342;2023-04-01T15:38:28;10.10;99.90
21744;DHT22;11034;48.556;9.342;2023-04-01T15:41:08;10.00;99.90
21744;DHT22;11034;48.556;9.342;2023-04-01T15:43:41;9.90;99.90
21744;DHT22;11034;48.556;9.342;2023-04-01T15:46:25;10.00;99.90
21744;DHT22;11034;48.556;9.342;2023-04-01T15:49:16;10.00;99.90
21744;DHT22;11034;48.556;9.342;2023-04-01T15:51:57;9.90;99.90
21744;DHT22;11034;48.556;9.342;2023-04-01T15:57:44;9.70;99.90
21744;DHT22;11034;48.556;9.342;2023-04-01T16:00:28;9.80;99.90
21744;DHT22;11034;48.556;9.342;2023-04-01T16:03:16;9.80;99.90
21744;DHT22;11034;48.556;9.342;2023-04-01T16:06:01;9.80;99.90
21744;DHT22;11034;48.556;9.342;2023-04-01T16:08:55;9.80;99.90
21744;DHT22;11034;48.556;9.342;2023-04-01T16:11:34;9.70;99.90
21744;DHT22;11034;48.556;9.342;2023-04-01T16:14:18;9.60;99.90
21744;DHT22;11034;48.556;9.342;2023-04-01T16:17:00;9.60;99.90
21744;DHT22;11034;48.556;9.342;2023-04-01T16:19:40;9.60;99.90
21744;DHT22;11034;48.556;9.342;2023-04-01T16:22:13;9.50;99.90
21744;DHT22;11034;48.556;9.342;2023-04-01T16:24:48;9.50;99.90
21744;DHT22;11034;48.556;9.342;2023-04-01T16:27:25;9.50;99.90
21744;DHT22;11034;48.556;9.342;2023-04-01T16:30:01;9.40;99.90
21744;DHT22;11034;48.556;9.342;2023-04-01T16:32:37;9.30;99.90
21744;DHT22;11034;48.556;9.342;2023-04-01T16:35:21;9.30;99.90
21744;DHT22;11034;48.556;9.342;2023-04-01T16:37:53;9.20;99.90
21744;DHT22;11034;48.556;9.342;2023-04-01T16:40:32;9.30;99.90
21744;DHT22;11034;48.556;9.342;2023-04-01T16:43:09;9.30;99.90
21744;DHT22;11034;48.556;9.342;2023-04-01T16:45:43;9.30;99.90
21744;DHT22;11034;48.556;9.342;2023-04-01T16:48:17;9.30;99.90
21744;DHT22;11034;48.556;9.342;2023-04-01T16:50:53;9.20;99.90
21744;DHT22;11034;48.556;9.342;2023-04-01T16:53:35;9.20;99.90
21744;DHT22;11034;48.556;9.342;2023-04-01T16:56:10;9.20;99.90
21744;DHT22;11034;48.556;9.342;2023-04-01T16:58:42;9.20;99.90
21744;DHT22;11034;48.556;9.342;2023-04-01T17:01:16;9.20;99.90
21744;DHT22;11034;48.556;9.342;2023-04-01T17:03:50;9.20;99.90
21744;DHT22;11034;48.556;9.342;2023-04-01T17:06:28;9.20;99.90
21744;DHT22;11034;48.556;9.342;2023-04-01T17:09:09;9.20;99.90
21744;DHT22;11034;48.556;9.342;2023-04-01T17:11:49;9.10;99.90
21744;DHT22;11034;48.556;9.342;2023-04-01T17:14:27;9.10;99.90
21744;DHT22;11034;48.556;9.342;2023-04-01T17:17:08;9.10;99.90
21744;DHT22;11034;48.556;9.342;2023-04-01T17:22:49;9.10;99.90
21744;DHT22;11034;48.556;9.342;2023-04-01T17:25:29;9.10;99.90
21744;DHT22;11034;48.556;9.342;2023-04-01T17:28:05;9.00;99.90
21744;DHT22;11034;48.556;9.342;2023-04-01T17:30:39;9.10;99.90
21744;DHT22;11034;48.556;9.342;2023-04-01T17:33:31;9.00;99.90
21744;DHT22;11034;48.556;9.342;2023-04-01T17:36:06;9.00;99.90
21744;DHT22;11034;48.556;9.342;2023-04-01T17:39:00;9.00;99.90
21744;DHT22;11034;48.556;9.342;2023-04-01T17:41:37;8.90;99.90
21744;DHT22;11034;48.556;9.342;2023-04-01T17:44:22;8.90;99.90
21744;DHT22;11034;48.556;9.342;2023-04-01T17:47:15;9.00;99.90
21744;DHT22;11034;48.556;9.342;2023-04-01T17:49:55;9.00;99.90
21744;DHT22;11034;48.556;9.342;2023-04-01T17:52:27;9.00;99.90
21744;DHT22;11034;48.556;9.342;2023-04-01T17:55:14;9.10;99.90
21744;DHT22;11034;48.556;9.342;2023-04-01T17:57:46;9.10;99.90
21744;DHT22;11034;48.556;9.342;2023-04-01T18:00:24;9.10;99.90
21744;DHT22;11034;48.556;9.342;2023-04-01T18:03:11;9.10;99.90
21744;DHT22;11034;48.556;9.342;2023-04-01T18:05:58;9.10;99.90
21744;DHT22;11034;48.556;9.342;2023-04-01T18:08:42;9.10;99.90
21744;DHT22;11034;48.556;9.342;2023-04-01T18:11:21;9.10;99.90
21744;DHT22;11034;48.556;9.342;2023-04-01T18:14:23;9.10;99.90
21744;DHT22;11034;48.556;9.342;2023-04-01T18:17:04;9.10;99.90
21744;DHT22;11034;48.556;9.342;2023-04-01T18:19:44;9.00;99.90
21744;DHT22;11034;48.556;9.342;2023-04-01T18:22:21;9.00;99.90
21744;DHT22;11034;48.556;9.342;2023-04-01T18:24:56;9.00;99.90
21744;DHT22;11034;48.556;9.342;2023-04-01T18:27:32;8.90;99.90
21744;DHT22;11034;48.556;9.342;2023-04-01T18:30:12;9.00;99.90
21744;DHT22;11034;48.556;9.342;2023-04-01T18:32:46;9.00;99.90
21744;DHT22;11034;48.556;9.342;2023-04-01T18:35:21;9.00;99.90
21744;DHT22;11034;48.556;9.342;2023-04-01T18:37:57;9.00;99.90
21744;DHT22;11034;48.556;9.342;2023-04-01T18:40:32;9.00;99.90
21744;DHT22;11034;48.556;9.342;2023-04-01T18:43:10;9.00;99.90
21744;DHT22;11034;48.556;9.342;2023-04-01T18:45:44;9.00;99.90
21744;DHT22;11034;48.556;9.342;2023-04-01T18:48:30;8.90;99.90
21744;DHT22;11034;48.556;9.342;2023-04-01T18:51:08;8.90;99.90
21744;DHT22;11034;48.556;9.342;2023-04-01T18:53:42;8.90;99.90
21744;DHT22;11034;48.556;9.342;2023-04-01T18:56:15;8.70;99.90
21744;DHT22;11034;48.556;9.342;2023-04-01T18:58:54;8.60;99.90
21744;DHT22;11034;48.556;9.342;2023-04-01T19:01:34;8.50;99.90
21744;DHT22;11034;48.556;9.342;2023-04-01T19:04:14;8.40;99.90
21744;DHT22;11034;48.556;9.342;2023-04-01T19:06:46;8.10;99.90
21744;DHT22;11034;48.556;9.342;2023-04-01T19:09:21;7.90;99.90
21744;DHT22;11034;48.556;9.342;2023-04-01T19:12:14;7.70;99.90
21744;DHT22;11034;48.556;9.342;2023-04-01T19:14:54;7.60;99.90
21744;DHT22;11034;48.556;9.342;2023-04-01T19:17:35;7.50;99.90
21744;DHT22;11034;48.556;9.342;2023-04-01T19:20:15;7.40;99.90
21744;DHT22;11034;48.556;9.342;2023-04-01T19:22:57;7.30;99.90
21744;DHT22;11034;48.556;9.342;2023-04-01T19:25:36;7.20;99.90
21744;DHT22;11034;48.556;9.342;2023-04-01T19:28:19;7.10;99.90
21744;DHT22;11034;48.556;9.342;2023-04-01T19:30:54;7.00;99.90
21744;DHT22;11034;48.556;9.342;2023-04-01T19:33:31;6.80;99.90
21744;DHT22;11034;48.556;9.342;2023-04-01T19:36:10;6.80;99.90
21744;DHT22;11034;48.556;9.342;2023-04-01T19:38:41;6.70;99.90
21744;DHT22;11034;48.556;9.342;2023-04-01T19:41:20;6.70;99.90
21744;DHT22;11034;48.556;9.342;2023-04-01T19:43:58;6.60;99.90
21744;DHT22;11034;48.556;9.342;2023-04-01T19:46:32;6.60;99.90
21744;DHT22;11034;48.556;9.342;2023-04-01T19:49:17;6.70;99.90
21744;DHT22;11034;48.556;9.342;2023-04-01T19:51:51;6.70;99.90
21744;DHT22;11034;48.556;9.342;2023-04-01T19:54:29;6.60;99.90
21744;DHT22;11034;48.556;9.342;2023-04-01T19:57:07;6.70;99.90
21744;DHT22;11034;48.556;9.342;2023-04-01T19:59:41;6.60;99.90
